sensor_id;sensor_type;location;lat;lon;timestamp;pressure;altitude;pressure_sealevel;temperature;humidity
75629;BME280;64213;46.452;16.994;2023-01-05T00:00:03;100564.22;;;6.28;96.49
75629;BME280;64213;46.452;16.994;2023-01-05T00:03:06;100559.03;;;6.27;96.52
75629;BME280;64213;46.452;16.994;2023-01-05T00:06:13;100558.09;;;6.28;96.64
75629;BME280;64213;46.452;16.994;2023-01-05T00:09:17;100543.25;;;6.27;96.73
75629;BME280;64213;46.452;16.994;2023-01-05T00:12:19;100530.06;;;6.28;96.67
75629;BME280;64213;46.452;16.994;2023-01-05T00:15:40;100517.81;;;6.29;96.80
75629;BME280;64213;46.452;16.994;2023-01-05T00:19:01;100518.69;;;6.28;96.71
75629;BME280;64213;46.452;16.994;2023-01-05T00:22:23;100515.09;;;6.31;96.74
75629;BME280;64213;46.452;16.994;2023-01-05T00:25:36;100508.91;;;6.32;96.76
75629;BME280;64213;46.452;16.994;2023-01-05T00:28:38;100505.50;;;6.29;96.76
75629;BME280;64213;46.452;16.994;2023-01-05T00:31:41;100504.31;;;6.38;96.68
75629;BME280;64213;46.452;16.994;2023-01-05T00:34:43;100490.38;;;6.36;96.56
75629;BME280;64213;46.452;16.994;2023-01-05T00:37:45;100485.72;;;6.43;96.46
75629;BME280;64213;46.452;16.994;2023-01-05T00:40:48;100486.41;;;6.48;96.30
75629;BME280;64213;46.452;16.994;2023-01-05T00:43:50;100480.22;;;6.49;96.37
75629;BME280;64213;46.452;16.994;2023-01-05T00:46:52;100479.25;;;6.51;96.47
75629;BME280;64213;46.452;16.994;2023-01-05T00:49:55;100489.62;;;6.55;96.38
75629;BME280;64213;46.452;16.994;2023-01-05T00:52:57;100489.44;;;6.59;96.25
75629;BME280;64213;46.452;16.994;2023-01-05T00:55:59;100481.56;;;6.59;96.23
75629;BME280;64213;46.452;16.994;2023-01-05T00:59:01;100473.78;;;6.56;96.30
75629;BME280;64213;46.452;16.994;2023-01-05T01:02:04;100473.03;;;6.54;96.31
75629;BME280;64213;46.452;16.994;2023-01-05T01:05:06;100473.12;;;6.51;96.41
75629;BME280;64213;46.452;16.994;2023-01-05T01:08:09;100474.72;;;6.55;96.29
75629;BME280;64213;46.452;16.994;2023-01-05T01:11:11;100468.63;;;6.55;96.27
75629;BME280;64213;46.452;16.994;2023-01-05T01:14:13;100473.12;;;6.51;96.33
75629;BME280;64213;46.452;16.994;2023-01-05T01:17:16;100480.16;;;6.50;96.44
75629;BME280;64213;46.452;16.994;2023-01-05T01:20:18;100487.06;;;6.53;96.35
75629;BME280;64213;46.452;16.994;2023-01-05T01:23:21;100484.50;;;6.51;96.36
75629;BME280;64213;46.452;16.994;2023-01-05T01:26:23;100476.66;;;6.50;96.44
75629;BME280;64213;46.452;16.994;2023-01-05T01:29:25;100474.16;;;6.47;96.47
75629;BME280;64213;46.452;16.994;2023-01-05T01:32:27;100473.38;;;6.45;96.49
75629;BME280;64213;46.452;16.994;2023-01-05T01:35:29;100466.41;;;6.44;96.56
75629;BME280;64213;46.452;16.994;2023-01-05T01:38:32;100464.69;;;6.43;96.58
75629;BME280;64213;46.452;16.994;2023-01-05T01:41:34;100456.00;;;6.41;96.66
75629;BME280;64213;46.452;16.994;2023-01-05T01:44:57;100452.59;;;6.39;96.74
75629;BME280;64213;46.452;16.994;2023-01-05T01:47:59;100443.72;;;6.41;96.64
75629;BME280;64213;46.452;16.994;2023-01-05T01:51:06;100442.69;;;6.45;96.54
75629;BME280;64213;46.452;16.994;2023-01-05T01:54:14;100438.22;;;6.47;96.47
75629;BME280;64213;46.452;16.994;2023-01-05T01:57:17;100428.62;;;6.46;96.49
75629;BME280;64213;46.452;16.994;2023-01-05T02:00:19;100426.84;;;6.47;96.31
75629;BME280;64213;46.452;16.994;2023-01-05T02:03:22;100430.97;;;6.54;96.28
75629;BME280;64213;46.452;16.994;2023-01-05T02:06:26;100428.34;;;6.54;96.27
75629;BME280;64213;46.452;16.994;2023-01-05T02:09:28;100427.28;;;6.58;96.11
75629;BME280;64213;46.452;16.994;2023-01-05T02:42:27;100377.53;;;6.53;96.02
75629;BME280;64213;46.452;16.994;2023-01-05T02:45:31;100357.50;;;6.51;96.06
75629;BME280;64213;46.452;16.994;2023-01-05T02:48:34;100348.81;;;6.49;96.09
75629;BME280;64213;46.452;16.994;2023-01-05T02:51:40;100333.91;;;6.49;96.11
75629;BME280;64213;46.452;16.994;2023-01-05T02:54:51;100314.59;;;6.50;96.04
75629;BME280;64213;46.452;16.994;2023-01-05T02:58:04;100300.47;;;6.53;95.96
75629;BME280;64213;46.452;16.994;2023-01-05T03:01:16;100294.50;;;6.49;95.92
75629;BME280;64213;46.452;16.994;2023-01-05T03:04:29;100304.81;;;6.54;95.98
75629;BME280;64213;46.452;16.994;2023-01-05T03:07:36;100313.59;;;6.53;95.88
75629;BME280;64213;46.452;16.994;2023-01-05T03:10:47;100316.06;;;6.58;95.78
75629;BME280;64213;46.452;16.994;2023-01-05T03:14:20;100307.38;;;6.56;95.74
75629;BME280;64213;46.452;16.994;2023-01-05T03:17:45;100299.75;;;6.49;95.83
75629;BME280;64213;46.452;16.994;2023-01-05T03:20:50;100290.03;;;6.51;95.93
75629;BME280;64213;46.452;16.994;2023-01-05T03:23:55;100294.50;;;6.49;95.97
75629;BME280;64213;46.452;16.994;2023-01-05T03:27:17;100286.59;;;6.49;95.99
75629;BME280;64213;46.452;16.994;2023-01-05T03:34:43;100286.81;;;6.45;95.98
75629;BME280;64213;46.452;16.994;2023-01-05T03:38:42;100284.91;;;6.48;95.99
75629;BME280;64213;46.452;16.994;2023-01-05T03:41:46;100275.44;;;6.44;96.12
75629;BME280;64213;46.452;16.994;2023-01-05T03:44:49;100278.13;;;6.43;96.15
75629;BME280;64213;46.452;16.994;2023-01-05T03:47:51;100279.06;;;6.42;96.18
75629;BME280;64213;46.452;16.994;2023-01-05T03:50:54;100289.56;;;6.42;96.26
75629;BME280;64213;46.452;16.994;2023-01-05T03:53:56;100296.75;;;6.38;96.28
75629;BME280;64213;46.452;16.994;2023-01-05T03:56:58;100293.38;;;6.35;96.34
75629;BME280;64213;46.452;16.994;2023-01-05T04:00:00;100294.41;;;6.31;96.51
75629;BME280;64213;46.452;16.994;2023-01-05T04:03:02;100292.13;;;6.23;96.69
75629;BME280;64213;46.452;16.994;2023-01-05T04:06:06;100281.94;;;6.15;96.97
75629;BME280;64213;46.452;16.994;2023-01-05T04:09:08;100284.81;;;6.09;97.17
75629;BME280;64213;46.452;16.994;2023-01-05T04:12:10;100281.41;;;6.07;97.26
75629;BME280;64213;46.452;16.994;2023-01-05T04:15:12;100272.72;;;6.05;97.26
75629;BME280;64213;46.452;16.994;2023-01-05T04:18:14;100264.81;;;6.07;97.25
75629;BME280;64213;46.452;16.994;2023-01-05T04:21:16;100241.88;;;6.10;97.15
75629;BME280;64213;46.452;16.994;2023-01-05T04:24:19;100244.37;;;6.13;97.02
75629;BME280;64213;46.452;16.994;2023-01-05T04:27:21;100237.34;;;6.14;96.99
75629;BME280;64213;46.452;16.994;2023-01-05T04:30:23;100252.12;;;6.16;96.90
75629;BME280;64213;46.452;16.994;2023-01-05T04:33:25;100224.03;;;5.98;96.83
75629;BME280;64213;46.452;16.994;2023-01-05T04:36:27;100250.63;;;6.11;96.93
75629;BME280;64213;46.452;16.994;2023-01-05T04:39:29;100254.31;;;6.07;97.03
75629;BME280;64213;46.452;16.994;2023-01-05T04:42:31;100251.84;;;6.02;97.13
75629;BME280;64213;46.452;16.994;2023-01-05T04:45:33;100256.47;;;5.97;97.35
75629;BME280;64213;46.452;16.994;2023-01-05T04:48:36;100244.66;;;5.85;97.61
75629;BME280;64213;46.452;16.994;2023-01-05T04:51:38;100256.94;;;5.85;97.82
75629;BME280;64213;46.452;16.994;2023-01-05T04:54:40;100243.25;;;5.76;97.99
75629;BME280;64213;46.452;16.994;2023-01-05T04:57:42;100246.06;;;5.72;98.28
75629;BME280;64213;46.452;16.994;2023-01-05T05:00:44;100246.38;;;5.64;98.36
75629;BME280;64213;46.452;16.994;2023-01-05T05:03:46;100242.16;;;5.60;98.59
75629;BME280;64213;46.452;16.994;2023-01-05T05:06:48;100239.66;;;5.57;98.81
75629;BME280;64213;46.452;16.994;2023-01-05T05:09:50;100234.50;;;5.55;98.97
75629;BME280;64213;46.452;16.994;2023-01-05T05:12:53;100227.47;;;5.56;99.06
75629;BME280;64213;46.452;16.994;2023-01-05T05:15:55;100224.03;;;5.54;99.13
75629;BME280;64213;46.452;16.994;2023-01-05T05:18:57;100224.13;;;5.52;98.98
75629;BME280;64213;46.452;16.994;2023-01-05T05:21:59;100227.63;;;5.51;99.21
75629;BME280;64213;46.452;16.994;2023-01-05T05:25:01;100225.03;;;5.51;99.34
75629;BME280;64213;46.452;16.994;2023-01-05T05:28:03;100228.66;;;5.49;99.13
75629;BME280;64213;46.452;16.994;2023-01-05T05:31:06;100232.12;;;5.49;99.35
75629;BME280;64213;46.452;16.994;2023-01-05T05:34:08;100234.88;;;5.46;99.49
75629;BME280;64213;46.452;16.994;2023-01-05T05:37:10;100235.94;;;5.41;99.57
75629;BME280;64213;46.452;16.994;2023-01-05T05:40:12;100228.28;;;5.36;99.72
75629;BME280;64213;46.452;16.994;2023-01-05T05:43:15;100229.28;;;5.32;99.96
75629;BME280;64213;46.452;16.994;2023-01-05T05:46:17;100232.22;;;5.24;100.00
75629;BME280;64213;46.452;16.994;2023-01-05T05:49:19;100228.91;;;5.19;100.00
75629;BME280;64213;46.452;16.994;2023-01-05T05:52:21;100239.59;;;5.15;100.00
75629;BME280;64213;46.452;16.994;2023-01-05T05:55:24;100238.88;;;5.11;100.00
75629;BME280;64213;46.452;16.994;2023-01-05T05:58:26;100232.88;;;5.07;100.00
75629;BME280;64213;46.452;16.994;2023-01-05T06:01:28;100238.19;;;5.06;100.00
75629;BME280;64213;46.452;16.994;2023-01-05T06:04:31;100232.94;;;5.06;100.00
75629;BME280;64213;46.452;16.994;2023-01-05T06:07:33;100208.59;;;5.02;100.00
75629;BME280;64213;46.452;16.994;2023-01-05T06:10:35;100221.75;;;5.01;100.00
75629;BME280;64213;46.452;16.994;2023-01-05T06:13:37;100214.88;;;4.98;100.00
75629;BME280;64213;46.452;16.994;2023-01-05T06:16:40;100222.75;;;4.98;100.00
75629;BME280;64213;46.452;16.994;2023-01-05T06:19:42;100215.84;;;4.96;100.00
75629;BME280;64213;46.452;16.994;2023-01-05T06:22:44;100213.22;;;4.96;100.00
75629;BME280;64213;46.452;16.994;2023-01-05T06:25:46;100222.00;;;4.95;100.00
75629;BME280;64213;46.452;16.994;2023-01-05T06:28:48;100217.75;;;4.92;100.00
75629;BME280;64213;46.452;16.994;2023-01-05T06:31:51;100222.19;;;4.90;100.00
75629;BME280;64213;46.452;16.994;2023-01-05T06:34:53;100227.59;;;4.85;100.00
75629;BME280;64213;46.452;16.994;2023-01-05T06:37:55;100209.25;;;4.85;100.00
75629;BME280;64213;46.452;16.994;2023-01-05T06:40:57;100218.84;;;4.85;100.00
75629;BME280;64213;46.452;16.994;2023-01-05T06:44:00;100217.16;;;4.84;100.00
75629;BME280;64213;46.452;16.994;2023-01-05T06:47:02;100236.34;;;4.84;100.00
75629;BME280;64213;46.452;16.994;2023-01-05T06:50:05;100217.00;;;4.88;100.00
75629;BME280;64213;46.452;16.994;2023-01-05T06:53:07;100215.16;;;4.90;100.00
75629;BME280;64213;46.452;16.994;2023-01-05T06:56:10;100204.75;;;4.89;100.00
75629;BME280;64213;46.452;16.994;2023-01-05T06:59:12;100217.00;;;4.88;100.00
75629;BME280;64213;46.452;16.994;2023-01-05T07:02:15;100221.44;;;4.86;100.00
75629;BME280;64213;46.452;16.994;2023-01-05T07:05:18;100209.19;;;4.87;100.00
75629;BME280;64213;46.452;16.994;2023-01-05T07:08:20;100201.28;;;4.88;100.00
75629;BME280;64213;46.452;16.994;2023-01-05T07:11:23;100196.87;;;4.89;100.00
75629;BME280;64213;46.452;16.994;2023-01-05T07:14:25;100201.16;;;4.92;100.00
75629;BME280;64213;46.452;16.994;2023-01-05T07:17:27;100190.56;;;4.95;100.00
75629;BME280;64213;46.452;16.994;2023-01-05T07:20:29;100196.66;;;4.95;100.00
75629;BME280;64213;46.452;16.994;2023-01-05T07:23:31;100194.81;;;4.97;100.00
75629;BME280;64213;46.452;16.994;2023-01-05T07:26:33;100185.16;;;4.98;100.00
75629;BME280;64213;46.452;16.994;2023-01-05T07:29:36;100178.00;;;5.03;100.00
75629;BME280;64213;46.452;16.994;2023-01-05T07:32:38;100173.31;;;5.11;100.00
75629;BME280;64213;46.452;16.994;2023-01-05T07:35:40;100180.81;;;5.20;100.00
75629;BME280;64213;46.452;16.994;2023-01-05T07:38:42;100184.81;;;5.29;100.00
75629;BME280;64213;46.452;16.994;2023-01-05T07:41:44;100181.12;;;5.34;99.94
75629;BME280;64213;46.452;16.994;2023-01-05T07:44:47;100180.06;;;5.39;99.63
75629;BME280;64213;46.452;16.994;2023-01-05T07:47:49;100188.75;;;5.41;99.32
75629;BME280;64213;46.452;16.994;2023-01-05T07:50:51;100192.87;;;5.46;99.08
75629;BME280;64213;46.452;16.994;2023-01-05T07:53:54;100186.37;;;5.55;98.96
75629;BME280;64213;46.452;16.994;2023-01-05T07:56:57;100186.94;;;5.63;98.75
75629;BME280;64213;46.452;16.994;2023-01-05T07:59:59;100177.03;;;5.70;98.25
75629;BME280;64213;46.452;16.994;2023-01-05T08:03:01;100188.94;;;5.78;98.04
75629;BME280;64213;46.452;16.994;2023-01-05T08:06:06;100184.16;;;5.88;97.75
75629;BME280;64213;46.452;16.994;2023-01-05T08:09:08;100178.53;;;5.97;97.35
75629;BME280;64213;46.452;16.994;2023-01-05T08:12:29;100192.13;;;6.07;96.85
75629;BME280;64213;46.452;16.994;2023-01-05T08:15:32;100178.59;;;6.16;96.57
75629;BME280;64213;46.452;16.994;2023-01-05T08:18:34;100202.59;;;6.27;95.92
75629;BME280;64213;46.452;16.994;2023-01-05T08:21:36;100197.09;;;6.34;95.63
75629;BME280;64213;46.452;16.994;2023-01-05T08:24:38;100195.03;;;6.40;95.25
75629;BME280;64213;46.452;16.994;2023-01-05T08:27:40;100209.28;;;6.35;95.32
75629;BME280;64213;46.452;16.994;2023-01-05T08:30:42;100202.47;;;6.31;95.40
75629;BME280;64213;46.452;16.994;2023-01-05T08:33:44;100203.53;;;6.26;95.63
75629;BME280;64213;46.452;16.994;2023-01-05T08:36:47;100211.88;;;6.36;95.33
75629;BME280;64213;46.452;16.994;2023-01-05T08:39:49;100196.47;;;6.47;95.06
75629;BME280;64213;46.452;16.994;2023-01-05T08:42:51;100198.53;;;6.60;94.77
75629;BME280;64213;46.452;16.994;2023-01-05T08:45:53;100188.19;;;6.75;94.12
75629;BME280;64213;46.452;16.994;2023-01-05T08:48:57;100182.87;;;6.96;93.58
75629;BME280;64213;46.452;16.994;2023-01-05T08:51:59;100177.75;;;7.12;92.69
75629;BME280;64213;46.452;16.994;2023-01-05T08:55:02;100175.44;;;7.23;92.00
75629;BME280;64213;46.452;16.994;2023-01-05T08:58:05;100178.34;;;7.36;91.36
75629;BME280;64213;46.452;16.994;2023-01-05T09:01:08;100171.31;;;7.54;90.68
75629;BME280;64213;46.452;16.994;2023-01-05T09:04:11;100181.78;;;7.73;90.35
75629;BME280;64213;46.452;16.994;2023-01-05T09:07:13;100184.13;;;7.79;90.15
75629;BME280;64213;46.452;16.994;2023-01-05T09:10:15;100188.16;;;7.86;89.81
75629;BME280;64213;46.452;16.994;2023-01-05T09:13:17;100182.78;;;8.05;89.18
75629;BME280;64213;46.452;16.994;2023-01-05T09:16:22;100182.69;;;8.06;88.98
75629;BME280;64213;46.452;16.994;2023-01-05T09:19:45;100173.38;;;8.16;88.27
75629;BME280;64213;46.452;16.994;2023-01-05T09:22:47;100200.72;;;8.31;88.08
75629;BME280;64213;46.452;16.994;2023-01-05T09:25:49;100190.75;;;8.38;87.49
75629;BME280;64213;46.452;16.994;2023-01-05T09:28:51;100214.25;;;8.43;87.30
75629;BME280;64213;46.452;16.994;2023-01-05T09:31:53;100197.97;;;8.68;86.72
75629;BME280;64213;46.452;16.994;2023-01-05T09:34:56;100192.94;;;8.63;86.75
75629;BME280;64213;46.452;16.994;2023-01-05T09:37:58;100166.91;;;8.57;86.90
75629;BME280;64213;46.452;16.994;2023-01-05T09:44:35;100172.87;;;8.92;85.86
75629;BME280;64213;46.452;16.994;2023-01-05T09:47:40;100167.00;;;9.19;85.05
75629;BME280;64213;46.452;16.994;2023-01-05T09:50:44;100169.41;;;9.23;85.00
75629;BME280;64213;46.452;16.994;2023-01-05T09:53:48;100170.50;;;9.35;83.91
75629;BME280;64213;46.452;16.994;2023-01-05T09:56:50;100175.22;;;9.44;83.88
75629;BME280;64213;46.452;16.994;2023-01-05T10:00:14;100174.44;;;9.74;83.21
75629;BME280;64213;46.452;16.994;2023-01-05T10:03:20;100158.34;;;9.93;82.12
75629;BME280;64213;46.452;16.994;2023-01-05T10:06:49;100150.34;;;10.09;81.60
75629;BME280;64213;46.452;16.994;2023-01-05T10:09:54;100154.72;;;10.38;80.56
75629;BME280;64213;46.452;16.994;2023-01-05T10:13:00;100156.78;;;10.62;80.06
75629;BME280;64213;46.452;16.994;2023-01-05T10:16:05;100148.47;;;10.82;79.52
75629;BME280;64213;46.452;16.994;2023-01-05T10:19:13;100154.03;;;10.92;79.43
75629;BME280;64213;46.452;16.994;2023-01-05T10:25:53;100136.66;;;11.55;75.18
75629;BME280;64213;46.452;16.994;2023-01-05T10:29:01;100145.59;;;11.54;74.91
75629;BME280;64213;46.452;16.994;2023-01-05T10:32:15;100128.00;;;10.99;76.47
75629;BME280;64213;46.452;16.994;2023-01-05T10:45:18;100138.31;;;10.47;77.82
75629;BME280;64213;46.452;16.994;2023-01-05T10:48:26;100136.19;;;10.53;78.25
75629;BME280;64213;46.452;16.994;2023-01-05T10:51:32;100140.00;;;10.48;78.01
75629;BME280;64213;46.452;16.994;2023-01-05T10:55:00;100122.31;;;10.63;78.15
75629;BME280;64213;46.452;16.994;2023-01-05T10:58:02;100127.41;;;10.52;77.82
75629;BME280;64213;46.452;16.994;2023-01-05T11:01:15;100120.25;;;10.40;78.30
75629;BME280;64213;46.452;16.994;2023-01-05T11:04:21;100123.47;;;10.45;78.39
75629;BME280;64213;46.452;16.994;2023-01-05T11:08:02;100122.25;;;10.51;78.15
75629;BME280;64213;46.452;16.994;2023-01-05T11:11:06;100130.34;;;10.62;78.01
75629;BME280;64213;46.452;16.994;2023-01-05T11:14:14;100113.25;;;10.67;77.91
75629;BME280;64213;46.452;16.994;2023-01-05T11:17:22;100104.84;;;10.61;77.36
75629;BME280;64213;46.452;16.994;2023-01-05T11:20:27;100121.47;;;10.63;77.69
75629;BME280;64213;46.452;16.994;2023-01-05T11:23:36;100131.19;;;10.62;77.89
75629;BME280;64213;46.452;16.994;2023-01-05T11:26:47;100127.63;;;10.63;77.90
75629;BME280;64213;46.452;16.994;2023-01-05T11:33:23;100112.47;;;10.80;77.82
75629;BME280;64213;46.452;16.994;2023-01-05T11:36:26;100113.12;;;10.83;77.89
75629;BME280;64213;46.452;16.994;2023-01-05T11:42:34;100112.78;;;11.02;77.29
75629;BME280;64213;46.452;16.994;2023-01-05T11:45:49;100108.78;;;11.36;76.06
75629;BME280;64213;46.452;16.994;2023-01-05T11:48:54;100103.78;;;11.72;75.07
75629;BME280;64213;46.452;16.994;2023-01-05T11:51:57;100094.97;;;11.58;75.25
75629;BME280;64213;46.452;16.994;2023-01-05T11:58:25;100067.59;;;11.58;75.76
75629;BME280;64213;46.452;16.994;2023-01-05T12:05:24;100085.19;;;11.59;75.85
75629;BME280;64213;46.452;16.994;2023-01-05T12:08:34;100096.66;;;11.72;75.46
75629;BME280;64213;46.452;16.994;2023-01-05T12:15:01;100101.81;;;12.01;75.37
75629;BME280;64213;46.452;16.994;2023-01-05T12:18:25;100081.56;;;12.00;74.89
75629;BME280;64213;46.452;16.994;2023-01-05T12:22:16;100107.31;;;11.98;74.83
75629;BME280;64213;46.452;16.994;2023-01-05T12:32:47;100056.72;;;12.01;74.23
75629;BME280;64213;46.452;16.994;2023-01-05T12:36:43;100057.50;;;12.03;73.44
75629;BME280;64213;46.452;16.994;2023-01-05T12:40:16;100061.28;;;11.99;72.95
75629;BME280;64213;46.452;16.994;2023-01-05T12:43:41;100055.97;;;11.86;72.72
75629;BME280;64213;46.452;16.994;2023-01-05T12:50:31;100051.66;;;11.85;72.68
75629;BME280;64213;46.452;16.994;2023-01-05T12:53:37;100058.34;;;11.91;72.48
75629;BME280;64213;46.452;16.994;2023-01-05T12:57:02;100056.19;;;11.96;72.34
75629;BME280;64213;46.452;16.994;2023-01-05T13:00:13;100050.91;;;11.96;72.47
75629;BME280;64213;46.452;16.994;2023-01-05T13:03:22;100062.66;;;11.92;72.47
75629;BME280;64213;46.452;16.994;2023-01-05T13:06:34;100058.84;;;11.96;72.66
75629;BME280;64213;46.452;16.994;2023-01-05T13:09:38;100058.84;;;11.96;72.25
75629;BME280;64213;46.452;16.994;2023-01-05T13:12:42;100069.16;;;11.88;72.33
75629;BME280;64213;46.452;16.994;2023-01-05T13:15:59;100058.53;;;11.88;72.32
75629;BME280;64213;46.452;16.994;2023-01-05T13:22:22;100043.47;;;11.75;73.12
75629;BME280;64213;46.452;16.994;2023-01-05T13:25:28;100051.06;;;11.67;73.50
75629;BME280;64213;46.452;16.994;2023-01-05T13:28:32;100042.19;;;11.68;73.78
75629;BME280;64213;46.452;16.994;2023-01-05T13:52:41;100040.47;;;11.54;73.36
75629;BME280;64213;46.452;16.994;2023-01-05T13:55:55;100039.63;;;11.54;73.30
75629;BME280;64213;46.452;16.994;2023-01-05T13:59:07;100052.84;;;11.54;73.11
75629;BME280;64213;46.452;16.994;2023-01-05T14:02:43;100077.34;;;11.57;73.26
75629;BME280;64213;46.452;16.994;2023-01-05T14:05:52;100101.31;;;11.56;73.68
75629;BME280;64213;46.452;16.994;2023-01-05T14:09:05;100109.34;;;11.54;74.00
75629;BME280;64213;46.452;16.994;2023-01-05T14:15:36;100104.16;;;11.53;73.63
75629;BME280;64213;46.452;16.994;2023-01-05T14:18:49;100110.38;;;11.52;73.21
75629;BME280;64213;46.452;16.994;2023-01-05T14:28:42;100130.50;;;11.41;73.64
75629;BME280;64213;46.452;16.994;2023-01-05T14:31:46;100150.19;;;11.37;73.26
75629;BME280;64213;46.452;16.994;2023-01-05T14:35:20;100161.94;;;11.33;73.55
75629;BME280;64213;46.452;16.994;2023-01-05T14:38:23;100172.09;;;11.27;73.99
75629;BME280;64213;46.452;16.994;2023-01-05T14:41:27;100186.78;;;11.18;74.44
75629;BME280;64213;46.452;16.994;2023-01-05T14:44:34;100191.59;;;11.11;74.44
75629;BME280;64213;46.452;16.994;2023-01-05T14:47:44;100214.88;;;11.06;75.03
75629;BME280;64213;46.452;16.994;2023-01-05T14:50:47;100203.84;;;10.85;75.67
75629;BME280;64213;46.452;16.994;2023-01-05T14:53:55;100209.69;;;10.90;75.89
75629;BME280;64213;46.452;16.994;2023-01-05T15:00:35;100206.69;;;10.82;76.04
75629;BME280;64213;46.452;16.994;2023-01-05T15:04:09;100214.91;;;10.78;76.25
75629;BME280;64213;46.452;16.994;2023-01-05T15:21:15;100207.63;;;10.53;77.45
75629;BME280;64213;46.452;16.994;2023-01-05T15:28:49;100207.25;;;10.44;77.95
75629;BME280;64213;46.452;16.994;2023-01-05T15:32:01;100216.31;;;10.40;78.10
75629;BME280;64213;46.452;16.994;2023-01-05T15:35:26;100228.13;;;10.35;78.45
75629;BME280;64213;46.452;16.994;2023-01-05T15:38:30;100239.91;;;10.29;78.78
75629;BME280;64213;46.452;16.994;2023-01-05T15:41:33;100252.78;;;10.19;79.39
75629;BME280;64213;46.452;16.994;2023-01-05T15:44:38;100264.91;;;10.08;80.03
75629;BME280;64213;46.452;16.994;2023-01-05T15:47:41;100265.44;;;9.98;80.66
75629;BME280;64213;46.452;16.994;2023-01-05T15:50:48;100266.84;;;9.90;81.01
75629;BME280;64213;46.452;16.994;2023-01-05T15:53:53;100268.91;;;9.85;81.50
75629;BME280;64213;46.452;16.994;2023-01-05T15:56:58;100273.97;;;9.73;82.61
75629;BME280;64213;46.452;16.994;2023-01-05T16:00:12;100263.75;;;9.67;82.80
75629;BME280;64213;46.452;16.994;2023-01-05T16:03:27;100271.22;;;9.59;83.18
75629;BME280;64213;46.452;16.994;2023-01-05T16:06:30;100270.38;;;9.59;83.20
75629;BME280;64213;46.452;16.994;2023-01-05T16:09:34;100263.97;;;9.63;82.85
75629;BME280;64213;46.452;16.994;2023-01-05T16:12:38;100281.72;;;9.61;83.03
75629;BME280;64213;46.452;16.994;2023-01-05T16:15:42;100284.87;;;9.51;83.68
75629;BME280;64213;46.452;16.994;2023-01-05T16:18:50;100285.22;;;9.45;83.88
75629;BME280;64213;46.452;16.994;2023-01-05T16:22:19;100291.59;;;9.41;83.94
75629;BME280;64213;46.452;16.994;2023-01-05T16:25:47;100271.75;;;9.50;83.42
75629;BME280;64213;46.452;16.994;2023-01-05T16:28:49;100254.72;;;9.55;83.04
75629;BME280;64213;46.452;16.994;2023-01-05T16:31:54;100246.00;;;9.53;83.27
75629;BME280;64213;46.452;16.994;2023-01-05T16:38:37;100278.66;;;9.37;84.54
75629;BME280;64213;46.452;16.994;2023-01-05T16:41:40;100298.31;;;9.31;85.13
75629;BME280;64213;46.452;16.994;2023-01-05T16:45:06;100299.50;;;9.25;85.40
75629;BME280;64213;46.452;16.994;2023-01-05T16:51:39;100324.78;;;9.14;86.46
75629;BME280;64213;46.452;16.994;2023-01-05T16:54:41;100313.44;;;9.12;86.57
75629;BME280;64213;46.452;16.994;2023-01-05T16:57:45;100329.38;;;9.10;86.46
75629;BME280;64213;46.452;16.994;2023-01-05T17:00:47;100324.16;;;9.08;86.83
75629;BME280;64213;46.452;16.994;2023-01-05T17:03:51;100326.03;;;9.06;86.95
75629;BME280;64213;46.452;16.994;2023-01-05T17:06:54;100331.66;;;9.00;87.17
75629;BME280;64213;46.452;16.994;2023-01-05T17:09:58;100340.31;;;9.02;87.37
75629;BME280;64213;46.452;16.994;2023-01-05T17:13:04;100342.19;;;9.00;87.24
75629;BME280;64213;46.452;16.994;2023-01-05T17:16:10;100341.63;;;9.11;87.06
75629;BME280;64213;46.452;16.994;2023-01-05T17:19:18;100350.38;;;9.12;87.13
75629;BME280;64213;46.452;16.994;2023-01-05T17:22:21;100356.59;;;9.11;87.34
75629;BME280;64213;46.452;16.994;2023-01-05T17:25:26;100346.28;;;9.06;87.35
75629;BME280;64213;46.452;16.994;2023-01-05T17:28:30;100353.88;;;9.12;87.33
75629;BME280;64213;46.452;16.994;2023-01-05T17:31:33;100352.84;;;9.15;87.30
75629;BME280;64213;46.452;16.994;2023-01-05T17:34:37;100357.22;;;9.16;87.44
75629;BME280;64213;46.452;16.994;2023-01-05T17:37:42;100364.78;;;9.22;87.30
75629;BME280;64213;46.452;16.994;2023-01-05T17:40:44;100367.78;;;9.16;87.78
75629;BME280;64213;46.452;16.994;2023-01-05T17:43:47;100360.94;;;9.12;88.11
75629;BME280;64213;46.452;16.994;2023-01-05T17:46:49;100358.22;;;9.13;88.03
75629;BME280;64213;46.452;16.994;2023-01-05T17:49:52;100373.22;;;9.13;87.82
75629;BME280;64213;46.452;16.994;2023-01-05T17:52:55;100375.25;;;9.07;87.94
75629;BME280;64213;46.452;16.994;2023-01-05T17:55:58;100383.31;;;9.04;88.27
75629;BME280;64213;46.452;16.994;2023-01-05T17:59:00;100381.78;;;9.00;88.55
75629;BME280;64213;46.452;16.994;2023-01-05T18:02:04;100389.00;;;8.97;88.79
75629;BME280;64213;46.452;16.994;2023-01-05T18:05:08;100402.50;;;8.91;89.20
75629;BME280;64213;46.452;16.994;2023-01-05T18:08:10;100401.81;;;8.87;89.36
75629;BME280;64213;46.452;16.994;2023-01-05T18:11:13;100400.94;;;8.87;89.04
75629;BME280;64213;46.452;16.994;2023-01-05T18:14:18;100396.69;;;8.84;88.94
75629;BME280;64213;46.452;16.994;2023-01-05T18:17:20;100399.56;;;8.79;89.19
75629;BME280;64213;46.452;16.994;2023-01-05T18:20:23;100406.78;;;8.76;88.93
75629;BME280;64213;46.452;16.994;2023-01-05T18:23:25;100417.56;;;8.71;88.91
75629;BME280;64213;46.452;16.994;2023-01-05T18:26:28;100394.34;;;8.60;89.34
75629;BME280;64213;46.452;16.994;2023-01-05T18:29:31;100391.88;;;8.57;89.56